»·PEaware :: N99157 KWHP-KCRQ

N99157 :: KWHP-KCRQ

FLIGHT INFORMATION

Flight Status: Arrived
Operator: Privately registered:
United States
More flights under this callsign
Pilot: Anonymous 14396 (14396)
Aircraft: CESSNA 172 SKYHAWK
(C172)
More flights by this aircraft type
Origin: KWHP Whiteman
United States
Destination: KCRQ McClellan-Palomar
United States
More flights between these airports :: More routes between these airports
Route: +WHP1 VNY POM PDZ V186 ROBNN V458 OCN
File this flight plan on PilotEdge
Remarks: TEC route BURP26
Altitude:
(Current/Filed)
7,000ft
Speed:
(Current/Filed)
105kts
Departed: 25-Apr-20 10:21 AM
Arrived: 25-Apr-20 11:31 AM
Distance/Time
Traveled:
89nm/1:10
Distance/Time
To Go:
Arrived

Flight Plot

Page will automatically refresh every two minutes.

Flight plan parsing failed; only flown route is shown


Map Options




Map Legend


Flown Route
Filed Route
Departure Airport
Arrival Airport
Navaid (VOR, NDB)
Fix

Horizontal Profiles

Position Reports

Time Latitude Longitude Heading Altitude Ground
Speed
25-Apr-20 10:02 34.263485 -118.416953 271 1004ft 0kts
25-Apr-20 10:03 34.263485 -118.416953 271 1004ft 0kts
25-Apr-20 10:04 34.263485 -118.416953 271 1004ft 0kts
25-Apr-20 10:05 34.263485 -118.416953 271 1004ft 0kts
25-Apr-20 10:06 34.263485 -118.416953 271 1004ft 0kts
25-Apr-20 10:07 34.263485 -118.416953 271 1004ft 0kts
25-Apr-20 10:08 34.263485 -118.416953 271 1004ft 0kts
25-Apr-20 10:09 34.263485 -118.416953 271 1004ft 0kts
25-Apr-20 10:10 34.263485 -118.416953 271 1004ft 0kts
25-Apr-20 10:11 34.263485 -118.416953 271 1004ft 0kts
25-Apr-20 10:12 34.263485 -118.416953 271 1004ft 0kts
25-Apr-20 10:13 34.263485 -118.416953 271 1004ft 0kts
25-Apr-20 10:14 34.263338 -118.417034 156 1004ft 6kts
25-Apr-20 10:15 34.259582 -118.413086 139 1004ft 25kts
25-Apr-20 10:16 34.256280 -118.409625 138 1004ft 12kts
25-Apr-20 10:17 34.255541 -118.408903 167 1004ft 0kts
25-Apr-20 10:18 34.255541 -118.408903 167 1004ft 0kts
25-Apr-20 10:19 34.255305 -118.409251 320 1004ft 0kts
25-Apr-20 10:20 34.266757 -118.421972 299 1284ft 77kts
25-Apr-20 10:21 34.266777 -118.448556 269 1903ft 78kts
25-Apr-20 10:22 34.266508 -118.474849 269 2526ft 78kts
25-Apr-20 10:23 34.266283 -118.501658 271 3091ft 80kts
25-Apr-20 10:24 34.280996 -118.517890 342 3614ft 80kts
25-Apr-20 10:25 34.302161 -118.527141 342 4104ft 81kts
25-Apr-20 10:26 34.323589 -118.536656 342 4614ft 83kts
25-Apr-20 10:27 34.320128 -118.553714 166 5092ft 81kts
25-Apr-20 10:28 34.299932 -118.541469 154 5560ft 82kts
25-Apr-20 10:29 34.279590 -118.528721 153 6012ft 82kts
25-Apr-20 10:30 34.259162 -118.515883 153 6445ft 83kts
25-Apr-20 10:31 34.238787 -118.502393 151 6856ft 84kts
25-Apr-20 10:32 34.221102 -118.480987 113 6999ft 104kts
25-Apr-20 10:33 34.209815 -118.446407 112 7000ft 113kts
25-Apr-20 10:34 34.198750 -118.410838 111 6999ft 112kts
25-Apr-20 10:35 34.187937 -118.375218 110 6999ft 112kts
25-Apr-20 10:37 34.177165 -118.339735 110 7000ft 112kts
25-Apr-20 10:38 34.166440 -118.304211 110 6999ft 112kts
25-Apr-20 10:39 34.155530 -118.268550 111 6999ft 112kts
25-Apr-20 10:40 34.146846 -118.232354 101 6999ft 112kts
25-Apr-20 10:41 34.141267 -118.195060 101 6999ft 113kts
25-Apr-20 10:42 34.135573 -118.157702 101 6999ft 112kts
25-Apr-20 10:43 34.129866 -118.120413 101 6999ft 112kts
25-Apr-20 10:44 34.124151 -118.083197 101 6999ft 112kts
25-Apr-20 10:45 34.118334 -118.045921 101 6999ft 113kts
25-Apr-20 10:46 34.112490 -118.008516 101 7027ft 113kts
25-Apr-20 10:47 34.106687 -117.970784 101 7027ft 115kts
25-Apr-20 10:48 34.100650 -117.932528 101 7028ft 116kts
25-Apr-20 10:49 34.094918 -117.894055 100 7027ft 117kts
25-Apr-20 10:50 34.088962 -117.855292 100 7027ft 116kts
25-Apr-20 10:51 34.083107 -117.817308 100 7027ft 115kts
25-Apr-20 10:52 34.070464 -117.782716 125 7027ft 114kts
25-Apr-20 10:53 34.051781 -117.751599 125 7029ft 114kts
25-Apr-20 10:54 34.033037 -117.720579 126 7027ft 114kts
25-Apr-20 10:55 34.014379 -117.689737 126 7027ft 113kts
25-Apr-20 10:56 33.995796 -117.658874 126 7027ft 113kts
25-Apr-20 10:56 33.980558 -117.632730 124 7026ft 114kts
25-Apr-20 10:57 33.962048 -117.601605 126 7027ft 114kts
25-Apr-20 10:59 33.943661 -117.572010 126 7027ft 114kts
25-Apr-20 10:59 33.924208 -117.540061 126 7027ft 113kts
25-Apr-20 11:00 33.900418 -117.515488 138 7025ft 113kts
25-Apr-20 11:01 33.874653 -117.493520 145 7027ft 113kts
25-Apr-20 11:02 33.848810 -117.471948 145 7027ft 113kts
25-Apr-20 11:03 33.823002 -117.450313 144 7027ft 113kts
25-Apr-20 11:04 33.797168 -117.428635 144 7027ft 113kts
25-Apr-20 11:05 33.771103 -117.407204 145 7027ft 113kts
25-Apr-20 11:06 33.744914 -117.385680 145 7027ft 114kts
25-Apr-20 11:07 33.718533 -117.364034 145 7027ft 115kts
25-Apr-20 11:08 33.692120 -117.342157 143 7027ft 115kts
25-Apr-20 11:09 33.666166 -117.319490 144 7027ft 115kts
25-Apr-20 11:10 33.639951 -117.297350 145 7028ft 115kts
25-Apr-20 11:11 33.613620 -117.275331 145 7027ft 115kts
25-Apr-20 11:12 33.587299 -117.253348 145 7025ft 115kts
25-Apr-20 11:13 33.560935 -117.231459 145 7019ft 115kts
25-Apr-20 11:14 33.534517 -117.209513 145 7013ft 115kts
25-Apr-20 11:15 33.508274 -117.187686 144 7007ft 114kts
25-Apr-20 11:16 33.482028 -117.165874 144 7019ft 113kts
25-Apr-20 11:17 33.448687 -117.155772 169 6499ft 127kts
25-Apr-20 11:18 33.413784 -117.148347 169 5995ft 127kts
25-Apr-20 11:19 33.379119 -117.140751 168 5496ft 126kts
25-Apr-20 11:20 33.344626 -117.133412 168 4995ft 125kts
25-Apr-20 11:21 33.310211 -117.129535 190 4496ft 126kts
25-Apr-20 11:22 33.275845 -117.138809 191 3996ft 127kts
25-Apr-20 11:23 33.241919 -117.148037 191 3493ft 121kts
25-Apr-20 11:24 33.209669 -117.156833 191 2987ft 116kts
25-Apr-20 11:25 33.180286 -117.167639 218 2713ft 102kts
25-Apr-20 11:26 33.160740 -117.192343 230 2095ft 100kts
25-Apr-20 11:27 33.146993 -117.216261 239 1461ft 77kts
25-Apr-20 11:28 33.137598 -117.237249 243 1056ft 73kts
25-Apr-20 11:29 33.131645 -117.259270 259 641ft 67kts
25-Apr-20 11:30 33.128590 -117.277838 260 335ft 30kts
25-Apr-20 11:31 33.127565 -117.279443 88 335ft 1kts
25-Apr-20 11:32 33.128046 -117.276232 78 335ft 16kts
25-Apr-20 11:33 33.127651 -117.274892 20 335ft 0kts
25-Apr-20 11:34 33.127874 -117.274989 351 335ft 0kts

Navigation Log

Ident Type
Flight plan parsing failed, navigation log unavailable